Jaguapita, Brazil
Current Conditions -  °F | °C
As of 5:00 AM on Monday 24 Nov 2014 (Local Time) from SBLO Reporting Station
Scattered Clouds Scattered Clouds  
Wind Chill: 70°   Ceiling: Unl
Heat Index: 70°   Visibility: 6mi
Dew Point: 64°   Wind: 7mph
Humidity: 83%   Direction: 130°SE
Pressure: 29.94"   Gusts: NA
Location:  23.12°S, 51.53°W
Report Text: SBLO 240700Z 13006KT 9999 FEW020 SCT100 21/18 Q1014
Loading
Personal Weather Stations






























Interactive Weather Map New forecast layout! Learn more

10-Day Weather Forecast

Advertisements
Track Severe Weather on mobile